createdAt,value
2019-02-27T00:01:01.516Z,46.40
2019-02-27T00:03:34.501Z,46.40
2019-02-27T00:06:05.958Z,46.50
2019-02-27T00:08:37.570Z,46.60
2019-02-27T00:11:09.978Z,46.50
2019-02-27T00:13:40.986Z,46.50
2019-02-27T00:16:11.841Z,46.50
2019-02-27T00:18:42.893Z,46.50
2019-02-27T00:21:14.229Z,46.50
2019-02-27T00:23:45.257Z,46.50
2019-02-27T00:26:16.581Z,46.50
2019-02-27T00:28:47.465Z,46.50
2019-02-27T00:31:18.261Z,46.60
2019-02-27T00:33:49.140Z,46.80
2019-02-27T00:36:20.065Z,47.00
2019-02-27T00:38:51.120Z,47.00
2019-02-27T00:41:22.235Z,47.10
2019-02-27T00:43:53.095Z,47.00
2019-02-27T00:46:24.035Z,47.00
2019-02-27T00:48:59.081Z,47.30
2019-02-27T00:51:28.358Z,47.40
2019-02-27T00:53:59.509Z,47.30
2019-02-27T00:56:30.651Z,47.30
2019-02-27T00:59:01.963Z,47.30
2019-02-27T01:01:32.630Z,47.30
2019-02-27T01:04:04.125Z,47.30
2019-02-27T01:06:34.858Z,47.20
2019-02-27T01:09:08.152Z,47.40
2019-02-27T01:11:40.854Z,48.00
2019-02-27T01:14:12.342Z,47.50
2019-02-27T01:16:43.739Z,47.40
2019-02-27T01:19:14.458Z,47.40
2019-02-27T01:21:45.419Z,47.30
2019-02-27T01:24:17.560Z,47.20
2019-02-27T01:26:48.784Z,47.20
2019-02-27T01:29:19.750Z,47.20
2019-02-27T01:31:50.590Z,47.20
2019-02-27T01:34:21.480Z,47.00
2019-02-27T01:36:54.880Z,46.90
2019-02-27T01:39:26.534Z,46.80
2019-02-27T01:41:57.988Z,46.80
2019-02-27T01:44:30.198Z,46.50
2019-02-27T01:47:02.410Z,46.20
2019-02-27T01:49:33.256Z,46.30
2019-02-27T01:52:04.706Z,46.30
2019-02-27T01:54:35.540Z,46.40
2019-02-27T01:57:06.567Z,46.40
2019-02-27T01:59:37.530Z,46.10
2019-02-27T02:02:09.344Z,46.20
2019-02-27T02:04:40.296Z,46.10
2019-02-27T02:07:11.194Z,46.10
2019-02-27T02:09:42.398Z,46.30
2019-02-27T02:12:23.559Z,46.10
2019-02-27T02:15:14.742Z,46.20
2019-02-27T02:18:45.758Z,46.30
2019-02-27T02:21:28.316Z,45.80
2019-02-27T02:24:54.222Z,45.60
2019-02-27T02:28:01.797Z,46.00
2019-02-27T02:31:20.332Z,46.20
2019-02-27T02:34:17.579Z,45.80
2019-02-27T02:37:12.376Z,46.60
2019-02-27T02:40:30.823Z,46.10
2019-02-27T02:43:42.379Z,45.90
2019-02-27T02:46:45.337Z,45.90
2019-02-27T02:49:46.330Z,45.90
2019-02-27T02:52:46.210Z,45.90
2019-02-27T02:55:55.808Z,45.70
2019-02-27T02:58:35.426Z,45.60
2019-02-27T03:01:16.462Z,45.70
2019-02-27T03:04:38.977Z,45.70
2019-02-27T03:07:50.726Z,45.40
2019-02-27T03:10:42.848Z,45.60
2019-02-27T03:14:02.553Z,45.20
2019-02-27T03:17:09.152Z,45.20
2019-02-27T03:20:18.392Z,45.20
2019-02-27T03:23:25.416Z,45.40
2019-02-27T03:26:18.883Z,45.60
2019-02-27T03:29:16.956Z,45.40
2019-02-27T03:32:02.811Z,45.30
2019-02-27T03:35:09.307Z,45.30
2019-02-27T03:38:04.736Z,45.30
2019-02-27T03:41:13.489Z,45.30
2019-02-27T03:44:36.987Z,45.10
2019-02-27T03:48:07.110Z,45.30
2019-02-27T03:50:55.437Z,45.80
2019-02-27T03:53:58.499Z,45.40
2019-02-27T03:56:54.664Z,45.40
2019-02-27T04:00:03.665Z,45.30
2019-02-27T04:03:09.667Z,45.20
2019-02-27T04:06:27.809Z,45.20
2019-02-27T04:09:01.635Z,45.50
2019-02-27T04:11:33.975Z,45.50
2019-02-27T04:14:28.290Z,45.10
2019-02-27T04:17:05.106Z,45.00
2019-02-27T04:19:31.789Z,45.00
2019-02-27T04:22:02.721Z,45.20
2019-02-27T04:24:34.073Z,45.20
2019-02-27T04:27:04.911Z,45.00
2019-02-27T04:29:40.845Z,44.90
2019-02-27T04:32:09.539Z,45.00
2019-02-27T04:34:40.889Z,45.10
2019-02-27T04:37:12.214Z,45.10
2019-02-27T04:39:43.393Z,45.00
2019-02-27T04:42:14.531Z,45.00
2019-02-27T04:44:45.676Z,45.10
2019-02-27T04:47:16.421Z,45.00
2019-02-27T04:49:47.861Z,45.00
2019-02-27T04:52:18.487Z,45.10
2019-02-27T04:54:50.555Z,45.20
2019-02-27T04:57:21.696Z,45.90
2019-02-27T04:59:52.859Z,45.40
2019-02-27T05:02:23.511Z,45.40
2019-02-27T05:04:54.473Z,45.50
2019-02-27T05:07:25.197Z,45.70
2019-02-27T05:09:56.796Z,45.60
2019-02-27T05:12:29.286Z,45.60
2019-02-27T05:15:00.834Z,45.40
2019-02-27T05:17:33.126Z,45.50
2019-02-27T05:20:03.967Z,45.60
2019-02-27T05:22:35.591Z,45.50
2019-02-27T05:25:06.612Z,45.40
2019-02-27T05:27:37.694Z,45.30
2019-02-27T05:30:11.986Z,45.30
2019-02-27T05:32:41.723Z,45.20
2019-02-27T05:35:12.978Z,45.10
2019-02-27T05:37:44.780Z,45.00
2019-02-27T05:40:16.042Z,45.00
2019-02-27T05:42:47.186Z,45.10
2019-02-27T05:45:18.270Z,45.10
2019-02-27T05:47:48.988Z,45.20
2019-02-27T05:50:20.192Z,45.10
2019-02-27T05:52:51.333Z,45.10
2019-02-27T05:55:22.239Z,45.20
2019-02-27T05:57:53.015Z,45.20
2019-02-27T06:00:24.283Z,45.20
2019-02-27T06:02:56.735Z,45.30
2019-02-27T06:05:27.764Z,45.40
2019-02-27T06:08:02.072Z,45.40
2019-02-27T06:10:31.966Z,45.40
2019-02-27T06:13:03.055Z,45.30
2019-02-27T06:15:34.491Z,45.40
2019-02-27T06:18:05.279Z,45.30
2019-02-27T06:20:38.935Z,45.40
2019-02-27T06:23:08.578Z,45.30
2019-02-27T06:25:39.778Z,45.40
2019-02-27T06:28:10.525Z,45.60
2019-02-27T06:30:41.358Z,45.60
2019-02-27T06:33:13.142Z,45.70
2019-02-27T06:35:44.706Z,45.90
2019-02-27T06:38:15.669Z,45.90
2019-02-27T06:40:46.755Z,45.90
2019-02-27T06:43:17.718Z,46.10
2019-02-27T06:45:48.680Z,46.20
2019-02-27T06:48:19.974Z,46.20
2019-02-27T06:50:50.838Z,46.30
2019-02-27T06:53:21.679Z,46.90
2019-02-27T06:55:52.461Z,46.50
2019-02-27T06:58:23.244Z,46.60
2019-02-27T07:00:54.462Z,47.00
2019-02-27T07:03:29.213Z,46.90
2019-02-27T07:05:58.297Z,47.00
2019-02-27T07:08:29.370Z,47.00
2019-02-27T07:11:10.429Z,47.20
2019-02-27T07:13:32.857Z,47.40
2019-02-27T07:16:03.939Z,47.50
2019-02-27T07:18:36.491Z,47.70
2019-02-27T07:21:07.783Z,47.80
2019-02-27T07:23:38.980Z,47.80
2019-02-27T07:26:10.486Z,47.80
2019-02-27T07:28:43.473Z,48.00
2019-02-27T07:31:17.257Z,48.00
2019-02-27T07:33:46.895Z,48.00
2019-02-27T07:36:17.759Z,48.00
2019-02-27T07:38:48.833Z,47.60
2019-02-27T07:41:20.985Z,47.50
2019-02-27T07:43:52.387Z,47.50
2019-02-27T07:46:23.221Z,47.40
2019-02-27T07:48:56.468Z,47.10
2019-02-27T07:51:27.363Z,47.40
2019-02-27T07:53:58.495Z,47.30
2019-02-27T07:56:29.587Z,47.10
2019-02-27T07:59:01.571Z,47.10
2019-02-27T08:01:32.291Z,47.20
2019-02-27T08:04:03.253Z,47.00
2019-02-27T08:06:35.061Z,47.20
2019-02-27T08:09:08.063Z,46.40
2019-02-27T08:11:39.874Z,46.70
2019-02-27T08:14:12.865Z,46.60
2019-02-27T08:16:44.666Z,46.30
2019-02-27T08:19:16.997Z,46.20
2019-02-27T08:21:49.765Z,46.20
2019-02-27T08:24:22.341Z,46.00
2019-02-27T08:26:54.873Z,46.80
2019-02-27T08:29:25.723Z,46.60
2019-02-27T08:32:00.718Z,46.10
2019-02-27T08:34:30.399Z,45.60
2019-02-27T08:37:01.440Z,45.10
2019-02-27T08:39:32.204Z,45.20
2019-02-27T08:42:03.593Z,45.40
2019-02-27T08:44:34.845Z,44.80
2019-02-27T08:47:07.831Z,44.20
2019-02-27T08:49:38.450Z,44.20
2019-02-27T08:52:13.105Z,44.50
2019-02-27T08:54:43.256Z,44.60
2019-02-27T08:57:13.857Z,45.30
2019-02-27T08:59:44.997Z,46.60
2019-02-27T09:02:16.742Z,46.40
2019-02-27T09:04:48.300Z,45.70
2019-02-27T09:07:19.508Z,44.90
2019-02-27T09:09:51.624Z,45.70
2019-02-27T09:12:22.972Z,45.40
2019-02-27T09:14:55.876Z,45.00
2019-02-27T09:17:27.359Z,44.50
2019-02-27T09:19:59.164Z,46.90
2019-02-27T09:22:30.196Z,47.70
2019-02-27T09:25:01.760Z,46.30
2019-02-27T09:27:35.209Z,45.20
2019-02-27T09:30:07.100Z,43.90
2019-02-27T09:32:37.885Z,43.80
2019-02-27T09:35:09.446Z,42.40
2019-02-27T09:37:40.293Z,41.30
2019-02-27T09:40:13.772Z,40.00
2019-02-27T09:42:44.856Z,41.50
2019-02-27T09:45:21.754Z,42.00
2019-02-27T09:47:52.896Z,41.60
2019-02-27T09:50:32.138Z,41.30
2019-02-27T09:53:03.643Z,42.60
2019-02-27T09:55:35.502Z,41.90
2019-02-27T09:58:09.861Z,41.80
2019-02-27T10:00:50.746Z,41.40
2019-02-27T10:03:22.086Z,40.80
2019-02-27T10:05:53.223Z,39.80
2019-02-27T10:08:25.405Z,39.20
2019-02-27T10:10:56.992Z,38.40
2019-02-27T10:13:28.435Z,36.70
2019-02-27T10:16:01.344Z,37.70
2019-02-27T10:18:31.969Z,38.30
2019-02-27T10:21:03.120Z,38.30
2019-02-27T10:23:34.088Z,38.10
2019-02-27T10:26:05.522Z,39.30
2019-02-27T10:28:39.606Z,39.20
2019-02-27T10:31:09.192Z,39.70
2019-02-27T10:33:43.001Z,40.00
2019-02-27T10:36:13.332Z,38.90
2019-02-27T10:38:45.530Z,37.90
2019-02-27T10:41:16.603Z,36.50
2019-02-27T10:43:48.968Z,35.50
2019-02-27T10:46:23.488Z,35.20
2019-02-27T10:48:53.544Z,34.20
2019-02-27T10:51:24.504Z,34.10
2019-02-27T10:53:55.587Z,33.10
2019-02-27T10:56:26.485Z,33.40
2019-02-27T10:58:57.872Z,33.80
2019-02-27T11:01:28.813Z,34.20
2019-02-27T11:04:00.478Z,34.50
2019-02-27T11:06:37.133Z,34.10
2019-02-27T11:09:41.299Z,31.90
2019-02-27T11:12:11.927Z,31.80
2019-02-27T11:14:43.121Z,31.50
2019-02-27T11:17:14.087Z,31.70
2019-02-27T11:19:45.287Z,31.10
2019-02-27T11:22:16.246Z,32.30
2019-02-27T11:24:49.365Z,31.70
2019-02-27T11:27:19.565Z,32.60
2019-02-27T11:29:51.057Z,31.60
2019-02-27T11:32:23.853Z,31.00
2019-02-27T11:34:54.219Z,30.70
2019-02-27T11:37:25.379Z,30.70
2019-02-27T11:39:56.467Z,30.40
2019-02-27T11:42:29.050Z,31.20
2019-02-27T11:45:00.141Z,30.10
2019-02-27T11:47:31.164Z,30.90
2019-02-27T11:50:02.108Z,30.60
2019-02-27T11:52:33.490Z,30.00
2019-02-27T11:55:04.603Z,30.40
2019-02-27T11:57:35.479Z,31.50
2019-02-27T12:00:07.759Z,30.20
2019-02-27T12:02:39.201Z,30.30
2019-02-27T12:05:11.363Z,29.90
2019-02-27T12:07:42.148Z,29.90
2019-02-27T12:10:16.165Z,29.90
2019-02-27T12:12:47.009Z,31.30
2019-02-27T12:15:18.689Z,31.60
2019-02-27T12:17:50.013Z,32.00
2019-02-27T12:20:22.052Z,31.20
2019-02-27T12:22:53.309Z,31.00
2019-02-27T12:25:28.944Z,31.10
2019-02-27T12:27:57.348Z,30.40
2019-02-27T12:30:28.580Z,30.70
2019-02-27T12:32:59.383Z,31.30
2019-02-27T12:35:31.184Z,31.60
2019-02-27T12:38:06.893Z,31.50
2019-02-27T12:40:35.507Z,32.60
2019-02-27T12:43:07.079Z,32.30
2019-02-27T12:45:38.509Z,31.90
2019-02-27T12:48:12.585Z,32.30
2019-02-27T12:50:42.638Z,31.50
2019-02-27T12:53:14.159Z,31.70
2019-02-27T12:55:44.879Z,31.40
2019-02-27T12:58:16.083Z,31.20
2019-02-27T13:00:47.045Z,30.60
2019-02-27T13:03:18.245Z,30.20
2019-02-27T13:05:49.806Z,30.20
2019-02-27T13:08:21.853Z,30.40
2019-02-27T13:10:52.577Z,30.10
2019-02-27T13:13:25.874Z,30.40
2019-02-27T13:15:56.595Z,30.00
2019-02-27T13:18:31.549Z,30.40
2019-02-27T13:20:59.900Z,30.70
2019-02-27T13:23:30.878Z,31.50
2019-02-27T13:26:01.949Z,32.00
2019-02-27T13:28:32.787Z,31.60
2019-02-27T13:31:05.535Z,31.70
2019-02-27T13:33:38.742Z,31.30
2019-02-27T13:36:08.793Z,32.10
2019-02-27T13:38:39.575Z,32.60
2019-02-27T13:41:11.798Z,32.30
2019-02-27T13:43:42.397Z,32.20
2019-02-27T13:46:14.322Z,31.90
2019-02-27T13:48:45.415Z,31.20
2019-02-27T13:51:16.522Z,31.80
2019-02-27T13:53:47.206Z,31.80
2019-02-27T13:56:18.414Z,32.50
2019-02-27T13:58:49.648Z,32.60
2019-02-27T14:01:20.930Z,33.00
2019-02-27T14:03:51.948Z,32.00
2019-02-27T14:06:23.934Z,32.50
2019-02-27T14:08:55.015Z,32.30
2019-02-27T14:11:26.219Z,33.00
2019-02-27T14:14:00.517Z,33.00
2019-02-27T14:16:34.558Z,33.40
2019-02-27T14:19:04.387Z,33.60
2019-02-27T14:21:36.120Z,33.00
2019-02-27T14:24:07.510Z,33.70
2019-02-27T14:26:41.479Z,33.50
2019-02-27T14:29:10.939Z,33.90
2019-02-27T14:31:43.478Z,34.60
2019-02-27T14:34:15.975Z,34.40
2019-02-27T14:36:46.880Z,34.60
2019-02-27T14:39:18.088Z,35.60
2019-02-27T14:41:51.224Z,35.70
2019-02-27T14:44:23.121Z,34.70
2019-02-27T14:46:56.167Z,34.80
2019-02-27T14:49:27.137Z,35.40
2019-02-27T14:51:59.370Z,36.40
2019-02-27T14:54:30.091Z,35.30
2019-02-27T14:57:01.296Z,34.00
2019-02-27T14:59:32.621Z,33.20
2019-02-27T15:02:03.458Z,31.50
2019-02-27T15:04:34.782Z,32.30
2019-02-27T15:07:05.628Z,34.10
2019-02-27T15:09:37.166Z,35.00
2019-02-27T15:12:07.906Z,34.10
2019-02-27T15:14:39.050Z,32.90
2019-02-27T15:17:10.006Z,33.40
2019-02-27T15:19:41.214Z,31.90
2019-02-27T15:22:12.421Z,31.50
2019-02-27T15:24:43.250Z,31.40
2019-02-27T15:27:14.398Z,32.00
2019-02-27T15:29:45.364Z,31.80
2019-02-27T15:32:16.203Z,31.10
2019-02-27T15:34:46.926Z,30.70
2019-02-27T15:37:17.766Z,30.90
2019-02-27T15:39:48.972Z,30.30
2019-02-27T15:42:19.931Z,30.30
2019-02-27T15:44:51.255Z,30.20
2019-02-27T15:47:22.338Z,30.20
2019-02-27T15:49:56.416Z,30.70
2019-02-27T15:52:28.460Z,30.60
2019-02-27T15:54:59.942Z,30.20
2019-02-27T15:57:31.262Z,30.50
2019-02-27T16:00:02.012Z,30.30
2019-02-27T16:02:34.034Z,30.50
2019-02-27T16:05:07.526Z,30.80
2019-02-27T16:07:38.910Z,31.50
2019-02-27T16:10:11.672Z,31.60
2019-02-27T16:12:42.996Z,32.20
2019-02-27T16:15:16.899Z,32.40
2019-02-27T16:17:47.680Z,33.10
2019-02-27T16:20:20.320Z,33.10
2019-02-27T16:22:52.730Z,33.30
2019-02-27T16:25:23.802Z,33.70
2019-02-27T16:27:54.704Z,33.40
2019-02-27T16:30:31.089Z,33.00
2019-02-27T16:32:59.470Z,33.30
2019-02-27T16:35:30.296Z,33.70
2019-02-27T16:38:01.137Z,34.50
2019-02-27T16:40:32.465Z,35.10
2019-02-27T16:43:03.178Z,35.60
2019-02-27T16:45:36.795Z,36.00
2019-02-27T16:48:06.784Z,36.40
2019-02-27T16:50:38.052Z,36.60
2019-02-27T16:53:09.534Z,36.90
2019-02-27T16:55:40.388Z,37.30
2019-02-27T16:58:11.717Z,37.70
2019-02-27T17:00:42.796Z,37.60
2019-02-27T17:03:14.064Z,38.00
2019-02-27T17:05:45.077Z,37.60
2019-02-27T17:08:17.477Z,37.70
2019-02-27T17:10:51.679Z,38.00
2019-02-27T17:13:21.133Z,37.60
2019-02-27T17:15:51.868Z,37.60
2019-02-27T17:18:27.832Z,37.60
2019-02-27T17:20:56.968Z,37.40
2019-02-27T17:23:28.200Z,37.30
2019-02-27T17:26:03.456Z,38.00
2019-02-27T17:28:31.679Z,37.70
2019-02-27T17:31:02.567Z,38.10
2019-02-27T17:33:49.018Z,38.10
2019-02-27T17:36:20.381Z,38.50
2019-02-27T17:38:52.549Z,37.60
2019-02-27T17:41:26.168Z,37.90
2019-02-27T17:43:57.110Z,37.70
2019-02-27T17:46:28.066Z,37.70
2019-02-27T17:48:59.518Z,37.80
2019-02-27T17:51:31.231Z,37.80
2019-02-27T17:54:02.463Z,38.00
2019-02-27T17:56:33.719Z,37.60
2019-02-27T17:59:05.233Z,37.70
2019-02-27T18:01:36.960Z,37.70
2019-02-27T18:04:07.953Z,37.70
2019-02-27T18:06:39.136Z,37.80
2019-02-27T18:09:10.808Z,37.80
2019-02-27T18:11:41.528Z,37.80
2019-02-27T18:14:12.253Z,37.80
2019-02-27T18:16:42.850Z,37.70
2019-02-27T18:19:16.366Z,37.80
2019-02-27T18:21:46.218Z,38.10
2019-02-27T18:24:17.056Z,38.10
2019-02-27T18:26:51.176Z,38.30
2019-02-27T18:29:21.559Z,38.30
2019-02-27T18:31:52.822Z,38.00
2019-02-27T18:34:23.820Z,37.60
2019-02-27T18:36:55.356Z,38.00
2019-02-27T18:39:26.722Z,38.10
2019-02-27T18:41:58.710Z,38.50
2019-02-27T18:44:29.791Z,38.20
2019-02-27T18:47:02.426Z,37.90
2019-02-27T18:49:33.694Z,38.00
2019-02-27T18:52:06.696Z,37.90
2019-02-27T18:54:38.491Z,38.40
2019-02-27T18:57:11.901Z,38.10
2019-02-27T18:59:42.896Z,38.50
2019-02-27T19:02:14.090Z,37.80
2019-02-27T19:04:45.111Z,38.00
2019-02-27T19:07:17.219Z,38.10
2019-02-27T19:09:49.345Z,37.50
2019-02-27T19:12:25.395Z,37.90
2019-02-27T19:14:53.514Z,38.00
2019-02-27T19:17:29.435Z,38.30
2019-02-27T19:19:58.220Z,38.20
2019-02-27T19:22:29.106Z,38.00
2019-02-27T19:25:00.927Z,37.90
2019-02-27T19:27:33.429Z,38.00
2019-02-27T19:30:07.180Z,38.20
2019-02-27T19:32:37.749Z,38.20
2019-02-27T19:35:09.314Z,37.90
2019-02-27T19:37:40.396Z,38.40
2019-02-27T19:40:14.598Z,37.80
2019-02-27T19:43:04.317Z,37.80
2019-02-27T19:45:35.903Z,38.00
2019-02-27T19:48:07.162Z,37.90
2019-02-27T19:50:37.941Z,38.00
2019-02-27T19:53:09.211Z,37.80
2019-02-27T19:55:41.017Z,38.00
2019-02-27T19:58:17.127Z,38.10
2019-02-27T20:00:48.813Z,38.00
2019-02-27T20:03:20.218Z,38.00
2019-02-27T20:05:53.290Z,38.20
2019-02-27T20:08:26.484Z,38.50
2019-02-27T20:10:57.759Z,38.00
2019-02-27T20:13:28.902Z,38.00
2019-02-27T20:16:00.226Z,38.00
2019-02-27T20:18:32.028Z,37.80
2019-02-27T20:21:03.379Z,37.80
2019-02-27T20:23:37.796Z,37.90
2019-02-27T20:26:14.025Z,37.90
2019-02-27T20:28:41.516Z,37.90
2019-02-27T20:31:17.993Z,37.90
2019-02-27T20:33:46.528Z,38.00
2019-02-27T20:36:19.084Z,38.20
2019-02-27T20:38:51.621Z,38.10
2019-02-27T20:41:23.415Z,38.00
2019-02-27T20:43:55.349Z,37.90
2019-02-27T20:46:26.906Z,38.10
2019-02-27T20:48:57.739Z,38.00
2019-02-27T20:51:28.707Z,38.10
2019-02-27T20:54:00.161Z,38.20
2019-02-27T20:56:32.347Z,38.00
2019-02-27T20:59:03.139Z,38.10
2019-02-27T21:01:33.989Z,38.10
2019-02-27T21:04:05.548Z,38.10
2019-02-27T21:06:36.608Z,38.10
2019-02-27T21:09:11.897Z,38.30
2019-02-27T21:11:41.675Z,38.30
2019-02-27T21:14:13.418Z,38.40
2019-02-27T21:16:45.704Z,38.40
2019-02-27T21:19:16.973Z,39.10
2019-02-27T21:21:47.938Z,38.50
2019-02-27T21:24:19.487Z,38.60
2019-02-27T21:26:54.161Z,38.60
2019-02-27T21:29:25.506Z,38.60
2019-02-27T21:31:58.279Z,38.80
2019-02-27T21:34:28.976Z,38.70
2019-02-27T21:36:59.810Z,38.70
2019-02-27T21:39:30.533Z,39.00
2019-02-27T21:42:01.133Z,39.00
2019-02-27T21:44:33.271Z,39.20
2019-02-27T21:47:04.435Z,38.80
2019-02-27T21:49:35.581Z,38.40
2019-02-27T21:52:06.553Z,38.60
2019-02-27T21:54:39.237Z,38.90
2019-02-27T21:57:10.027Z,38.90
2019-02-27T21:59:40.991Z,39.50
2019-02-27T22:02:11.595Z,38.70
2019-02-27T22:04:44.031Z,38.20
2019-02-27T22:07:14.835Z,38.50
2019-02-27T22:09:45.737Z,38.70
2019-02-27T22:12:16.639Z,39.00
2019-02-27T22:14:48.576Z,38.60
2019-02-27T22:17:20.283Z,38.60
2019-02-27T22:19:53.821Z,38.30
2019-02-27T22:22:24.512Z,38.30
2019-02-27T22:24:56.359Z,38.30
2019-02-27T22:27:27.619Z,38.10
2019-02-27T22:29:59.697Z,37.80
2019-02-27T22:32:31.350Z,37.90
2019-02-27T22:35:04.037Z,38.10
2019-02-27T22:37:35.140Z,38.30
2019-02-27T22:40:07.536Z,38.20
2019-02-27T22:42:39.220Z,38.00
2019-02-27T22:48:33.387Z,38.10
2019-02-27T22:51:04.535Z,38.20
2019-02-27T22:53:36.403Z,38.50
2019-02-27T22:56:06.951Z,38.40
2019-02-27T22:58:37.795Z,38.40
2019-02-27T23:01:15.149Z,38.80
2019-02-27T23:03:54.939Z,38.70
2019-02-27T23:06:26.160Z,38.70
2019-02-27T23:08:57.129Z,38.70
2019-02-27T23:11:27.963Z,38.70
2019-02-27T23:13:59.409Z,38.90
2019-02-27T23:16:30.608Z,38.80
2019-02-27T23:19:03.369Z,38.80
2019-02-27T23:21:34.149Z,38.50
2019-02-27T23:24:07.133Z,38.70
2019-02-27T23:26:38.353Z,38.70
2019-02-27T23:29:09.137Z,38.80
2019-02-27T23:31:39.988Z,39.10
2019-02-27T23:34:11.302Z,38.90
2019-02-27T23:36:42.146Z,38.60
2019-02-27T23:39:12.747Z,39.00
2019-02-27T23:41:43.782Z,38.90
2019-02-27T23:44:14.552Z,38.80
2019-02-27T23:46:49.556Z,38.60
2019-02-27T23:49:17.794Z,38.80
2019-02-27T23:51:48.875Z,38.90
2019-02-27T23:54:20.103Z,39.00
2019-02-27T23:56:52.138Z,38.90
2019-02-27T23:59:23.932Z,39.30
